Главная страница
METAR-TAF:

METAR-TAF

Аэропорты :

Salak

Маруа, Камерун

широта: 10-27N, долгота: 014-15E, высота над уровнем моря: 423 м

Текущие метеонаблюдения

Эта сводка был подготовлена 16 часа и 39 минут назад, в 11:00 UTC
Температура
Давление 1010 hPa
Видимость 10 км и более
Нет облачности ниже 1500 м, и нет кучево-дождевой облачности

METAR: FKKL 191100Z /////KT CAVOK ///// Q1010

Время: 04:39 (03:39 UTC)

Прогноз

Эта сводка был подготовлена 22 часа и 39 минут назад, в 05:00 UTC
Прогноз действительный с 19-го 06 UTC до 19-го 18 UTC
Ветер 8 Узел переменных направлений
Видимость 10 км и более
Нет облачности ниже 1500 м, и нет кучево-дождевой облачности

TAF: FKKL 190500Z 1906/1918 VRB08KT CAVOK

Метеонаблюдения и прогнозы для более 4000 аэропортов (сводки METAR и TAF).

Имеющиеся станции представлены на карте желтыми и красными точками.

Чтобы увидеть название станции, наведите на нее мышь.

Затем щелкните, чтобы увидеть метеонаблюдения и метеопрогнозы.

Управление картой: чтобы увеличить масштаб, щелкните зеленые кнопки с черным крестиком; чтобы уменьшить масштаб, щелкните зеленую кнопку с тире; для просмотра соседних карт щелкайте зеленые стрелки.


METAR-TAF: